Terminal Aerodrome Forecast
Issued by NWS Austin/San Antonio, TX

Home | Current Version | Previous Version | Text Only | Print | Product List | Glossary On
Versions: 1 2 3 4 5 6 7 8 9 10 11 12 13 14 15 16 17 18 19 20 21 22 23
614
FTUS44 KEWX 261128
TAFSAT
TAF
KSAT 261128Z 2612/2718 07005KT P6SM BKN008
     FM261400 07005KT P6SM BKN015
     FM261500 08005KT P6SM BKN025
     FM261700 11010KT P6SM VCSH BKN040
      TEMPO 2618/2622 -TSRA BKN035CB
     FM270300 11005KT P6SM BKN050=

USA.gov is the U.S. government's official web portal to all federal, state and local government web resources and services.